Time;durP1;ratioP1;P1;durP2;ratioP2;P2;SDS_P1;SDS_P2;PMS_P1;PMS_P2;Temp;Humidity;BMP_temperature;BMP_pressure;BME280_temperature;BME280_humidity;BME280_pressure;Samples;Min_cycle;Max_cycle;Signal;HPM_P1;HPM_P2
2020/04/14 00:01:55;;;;;;;13.4;5.5;;;;;;;4.24;86.08398;939.4529;;;;
2020/04/14 00:04:20;;;;;;;12.5;5.5;;;;;;;4.4;85.67773;939.4604;;;;
2020/04/14 00:06:45;;;;;;;11.2;5.2;;;;;;;4.56;85.88965;939.4688;;;;
2020/04/14 00:09:10;;;;;;;16;6.1;;;;;;;4.43;85.29004;939.4897;;;;
2020/04/14 00:11:35;;;;;;;18.1;6.9;;;;;;;4.52;85.80273;939.5047;;;;
2020/04/14 00:14:01;;;;;;;17;6.8;;;;;;;4.44;85.34766;939.5349;;;;
2020/04/14 00:16:27;;;;;;;17.3;7.1;;;;;;;4.55;85.59473;939.5567;;;;
2020/04/14 00:18:52;;;;;;;18.2;7.1;;;;;;;4.28;85.65234;939.5717;;;;
2020/04/14 00:21:18;;;;;;;18.9;7.4;;;;;;;4.33;85.75391;939.4987;;;;
2020/04/14 00:23:43;;;;;;;17;7.1;;;;;;;4.59;86.14453;939.4886;;;;
2020/04/14 00:26:10;;;;;;;18.2;7.2;;;;;;;4.78;84.26758;939.486;;;;
2020/04/14 00:28:35;;;;;;;18.4;7.4;;;;;;;4.87;84.73633;939.3669;;;;
2020/04/14 00:31:01;;;;;;;18.1;7.5;;;;;;;4.85;85.02539;939.3937;;;;
2020/04/14 00:33:26;;;;;;;15.8;7.2;;;;;;;4.88;84.88379;939.312;;;;
2020/04/14 00:35:52;;;;;;;16.8;7.2;;;;;;;5.05;84.64746;939.3177;;;;
2020/04/14 00:38:17;;;;;;;17.4;7.3;;;;;;;;;;;;;
2020/04/14 00:40:42;;;;;;;15.5;7.2;;;;;;;;;;;;;
2020/04/14 00:43:08;;;;;;;16.9;7.1;;;;;;;;;;;;;
2020/04/14 00:45:34;;;;;;;16.1;6.5;;;;;;;;;;;;;
2020/04/14 00:47:59;;;;;;;15.7;6.9;;;;;;;;;;;;;
2020/04/14 00:50:25;;;;;;;14.7;6.4;;;;;;;;;;;;;
2020/04/14 00:52:50;;;;;;;14.9;6.7;;;;;;;;;;;;;
2020/04/14 00:55:15;;;;;;;14;6.1;;;;;;;;;;;;;
2020/04/14 00:57:40;;;;;;;15.5;6.7;;;;;;;;;;;;;
2020/04/14 01:00:05;;;;;;;16.3;6.4;;;;;;;;;;;;;
2020/04/14 01:02:31;;;;;;;17.4;6.4;;;;;;;;;;;;;
2020/04/14 01:04:56;;;;;;;16.2;6.5;;;;;;;;;;;;;
2020/04/14 01:07:21;;;;;;;16.2;6;;;;;;;;;;;;;
2020/04/14 01:09:46;;;;;;;14.5;6.4;;;;;;;;;;;;;
2020/04/14 01:12:15;;;;;;;13.8;5.8;;;;;;;;;;;;;
2020/04/14 01:14:37;;;;;;;15;5.9;;;;;;;;;;;;;
2020/04/14 01:17:02;;;;;;;13.7;6.1;;;;;;;;;;;;;
2020/04/14 01:19:27;;;;;;;13;6.1;;;;;;;;;;;;;
2020/04/14 01:22:01;;;;;;;13.6;6.1;;;;;;;;;;;;;
2020/04/14 01:24:18;;;;;;;14.3;5.9;;;;;;;;;;;;;
2020/04/14 01:26:43;;;;;;;17.9;6.8;;;;;;;;;;;;;
2020/04/14 01:29:08;;;;;;;13.9;6.6;;;;;;;;;;;;;
2020/04/14 01:31:34;;;;;;;15.2;6.5;;;;;;;;;;;;;
2020/04/14 01:33:59;;;;;;;13.8;6.4;;;;;;;;;;;;;
2020/04/14 01:36:24;;;;;;;13.4;6.2;;;;;;;;;;;;;
2020/04/14 01:38:49;;;;;;;17.5;7;;;;;;;;;;;;;
2020/04/14 01:41:14;;;;;;;17.7;6.6;;;;;;;;;;;;;
2020/04/14 01:43:39;;;;;;;14.7;6.3;;;;;;;;;;;;;
2020/04/14 01:46:05;;;;;;;19.1;7.2;;;;;;;;;;;;;
2020/04/14 01:48:31;;;;;;;16.7;6.7;;;;;;;;;;;;;
2020/04/14 01:50:56;;;;;;;16.3;7;;;;;;;;;;;;;
2020/04/14 01:53:21;;;;;;;14.8;6.7;;;;;;;;;;;;;
2020/04/14 01:55:46;;;;;;;12.5;5.9;;;;;;;;;;;;;
2020/04/14 01:58:11;;;;;;;16.2;6.2;;;;;;;;;;;;;
2020/04/14 02:00:37;;;;;;;15.2;5.8;;;;;;;;;;;;;
2020/04/14 02:05:35;;;;;;;11.3;5.7;;;;;;;;;;;;;
2020/04/14 02:07:56;;;;;;;12.6;5.9;;;;;;;;;;;;;
2020/04/14 02:10:17;;;;;;;9.1;5.1;;;;;;;;;;;;;
2020/04/14 02:12:42;;;;;;;11.8;5.7;;;;;;;;;;;;;
2020/04/14 02:15:07;;;;;;;10.1;5.7;;;;;;;;;;;;;
2020/04/14 02:17:33;;;;;;;10.6;6.1;;;;;;;;;;;;;
2020/04/14 02:19:58;;;;;;;16.1;7.1;;;;;;;;;;;;;
2020/04/14 02:22:23;;;;;;;13.6;7;;;;;;;;;;;;;
2020/04/14 02:24:48;;;;;;;14.1;6.4;;;;;;;;;;;;;
2020/04/14 02:27:13;;;;;;;13.3;6.3;;;;;;;;;;;;;
2020/04/14 02:29:38;;;;;;;12.3;6.2;;;;;;;;;;;;;
2020/04/14 02:32:04;;;;;;;13.7;6.9;;;;;;;;;;;;;
2020/04/14 02:34:29;;;;;;;16.8;7.7;;;;;;;;;;;;;
2020/04/14 02:36:54;;;;;;;16.6;7.2;;;;;;;;;;;;;
2020/04/14 02:39:19;;;;;;;12.6;6.7;;;;;;;;;;;;;
2020/04/14 02:41:45;;;;;;;12.5;6.9;;;;;;;;;;;;;
2020/04/14 02:44:10;;;;;;;13.9;6.5;;;;;;;;;;;;;
2020/04/14 02:46:36;;;;;;;13.9;6.1;;;;;;;;;;;;;
2020/04/14 02:49:01;;;;;;;13.3;6;;;;;;;;;;;;;
2020/04/14 02:51:26;;;;;;;13.6;6.1;;;;;;;;;;;;;
2020/04/14 02:53:51;;;;;;;12.6;5.7;;;;;;;;;;;;;
2020/04/14 02:56:16;;;;;;;15.7;6.3;;;;;;;;;;;;;
2020/04/14 02:58:41;;;;;;;14.6;6.1;;;;;;;;;;;;;
2020/04/14 03:01:07;;;;;;;13.2;6.2;;;;;;;;;;;;;
2020/04/14 03:03:32;;;;;;;15.3;6.2;;;;;;;;;;;;;
2020/04/14 03:06:02;;;;;;;14.2;5.6;;;;;;;;;;;;;
2020/04/14 03:08:32;;;;;;;12.6;6;;;;;;;;;;;;;
2020/04/14 03:13:40;;;;;;;16.3;6;;;;;;;;;;;;;
2020/04/14 03:15:46;;;;;;;12.5;5.7;;;;;;;;;;;;;
2020/04/14 03:18:52;;;;;;;13.4;6.7;;;;;;;;;;;;;
2020/04/14 03:20:34;;;;;;;17.4;7.3;;;;;;;;;;;;;
2020/04/14 03:22:59;;;;;;;14;6.6;;;;;;;;;;;;;
2020/04/14 03:25:19;;;;;;;16.1;6.4;;;;;;;;;;;;;
2020/04/14 03:27:44;;;;;;;15.2;6.4;;;;;;;;;;;;;
2020/04/14 03:30:09;;;;;;;16;6.3;;;;;;;;;;;;;
2020/04/14 03:32:35;;;;;;;15.8;6.8;;;;;;;;;;;;;
2020/04/14 03:35:00;;;;;;;13.3;6.4;;;;;;;;;;;;;
2020/04/14 03:37:26;;;;;;;13.8;6.6;;;;;;;;;;;;;
2020/04/14 03:39:51;;;;;;;15.5;6.8;;;;;;;;;;;;;
2020/04/14 03:42:17;;;;;;;16.6;7.1;;;;;;;;;;;;;
2020/04/14 03:44:42;;;;;;;13.1;6.3;;;;;;;;;;;;;
2020/04/14 03:47:07;;;;;;;14.7;6.4;;;;;;;;;;;;;
2020/04/14 03:49:32;;;;;;;14.9;6.7;;;;;;;;;;;;;
2020/04/14 03:51:57;;;;;;;15.7;7;;;;;;;;;;;;;
2020/04/14 03:54:22;;;;;;;12.7;6.9;;;;;;;;;;;;;
2020/04/14 03:56:47;;;;;;;17.6;7.3;;;;;;;;;;;;;
2020/04/14 03:59:13;;;;;;;15.3;7.5;;;;;;;;;;;;;
2020/04/14 04:02:30;;;;;;;16;6.9;;;;;;;5.52;82.63086;939.5333;;;;
2020/04/14 04:04:55;;;;;;;15.9;6.7;;;;;;;5.46;82.6748;939.593;;;;
2020/04/14 04:07:20;;;;;;;15.4;7;;;;;;;5.42;84.33594;939.5886;;;;
2020/04/14 04:09:45;;;;;;;15.7;6.6;;;;;;;;;;;;;
2020/04/14 04:12:11;;;;;;;18.1;6.7;;;;;;;;;;;;;
2020/04/14 04:14:36;;;;;;;15.3;6.1;;;;;;;;;;;;;
2020/04/14 04:17:02;;;;;;;14.4;6;;;;;;;;;;;;;
2020/04/14 04:19:27;;;;;;;16.6;7.5;;;;;;;;;;;;;
2020/04/14 04:21:53;;;;;;;17.5;6.6;;;;;;;;;;;;;
2020/04/14 04:24:18;;;;;;;20.7;7;;;;;;;;;;;;;
2020/04/14 04:26:44;;;;;;;18.6;7.2;;;;;;;;;;;;;
2020/04/14 04:29:09;;;;;;;16.7;6.9;;;;;;;;;;;;;
2020/04/14 04:31:34;;;;;;;16;6.9;;;;;;;;;;;;;
2020/04/14 04:33:59;;;;;;;19.3;6.7;;;;;;;;;;;;;
2020/04/14 04:36:25;;;;;;;17.7;6.5;;;;;;;;;;;;;
2020/04/14 04:38:50;;;;;;;19.2;6.1;;;;;;;;;;;;;
2020/04/14 04:41:15;;;;;;;15.7;6.1;;;;;;;;;;;;;
2020/04/14 04:43:40;;;;;;;14.3;5.8;;;;;;;;;;;;;
2020/04/14 04:46:05;;;;;;;17.2;6.3;;;;;;;;;;;;;
2020/04/14 04:48:32;;;;;;;19.2;6.3;;;;;;;;;;;;;
2020/04/14 04:50:57;;;;;;;17.2;5.9;;;;;;;;;;;;;
2020/04/14 04:53:23;;;;;;;16.8;5.6;;;;;;;;;;;;;
2020/04/14 04:55:48;;;;;;;15.2;5.7;;;;;;;;;;;;;
2020/04/14 04:58:14;;;;;;;14.8;5.7;;;;;;;;;;;;;
2020/04/14 05:00:39;;;;;;;16.1;6.4;;;;;;;;;;;;;
2020/04/14 05:03:05;;;;;;;18.4;7.2;;;;;;;;;;;;;
2020/04/14 05:05:30;;;;;;;16.8;6.8;;;;;;;;;;;;;
2020/04/14 05:07:55;;;;;;;16.7;6.4;;;;;;;;;;;;;
2020/04/14 05:10:20;;;;;;;16.7;6.1;;;;;;;;;;;;;
2020/04/14 05:12:45;;;;;;;18.5;6.2;;;;;;;;;;;;;
2020/04/14 05:15:10;;;;;;;18.4;6.2;;;;;;;;;;;;;
2020/04/14 05:17:36;;;;;;;18;6.1;;;;;;;;;;;;;
2020/04/14 05:20:01;;;;;;;19.1;6.5;;;;;;;;;;;;;
2020/04/14 05:22:27;;;;;;;15.6;5.5;;;;;;;;;;;;;
2020/04/14 05:24:54;;;;;;;16.2;5.6;;;;;;;;;;;;;
2020/04/14 05:27:19;;;;;;;16.2;5;;;;;;;;;;;;;
2020/04/14 05:32:22;;;;;;;14.7;4.6;;;;;;;;;;;;;
2020/04/14 05:34:35;;;;;;;17.1;5;;;;;;;;;;;;;
2020/04/14 05:37:00;;;;;;;17.7;5.1;;;;;;;;;;;;;
2020/04/14 05:39:25;;;;;;;16.1;5.3;;;;;;;;;;;;;
2020/04/14 05:41:50;;;;;;;15;5.1;;;;;;;;;;;;;
2020/04/14 05:44:15;;;;;;;17.3;4.7;;;;;;;;;;;;;
2020/04/14 05:46:40;;;;;;;16.2;4.2;;;;;;;;;;;;;
2020/04/14 05:49:05;;;;;;;13;4.5;;;;;;;;;;;;;
2020/04/14 05:51:30;;;;;;;20.2;4.7;;;;;;;;;;;;;
2020/04/14 05:53:56;;;;;;;16.2;4.4;;;;;;;;;;;;;
2020/04/14 05:56:21;;;;;;;16.9;4.7;;;;;;;;;;;;;
2020/04/14 05:58:46;;;;;;;18.3;4.3;;;;;;;;;;;;;
2020/04/14 06:01:11;;;;;;;15.1;4.1;;;;;;;;;;;;;
2020/04/14 06:04:39;;;;;;;15.9;4.3;;;;;;;;;;;;;
2020/04/14 06:06:04;;;;;;;18.2;4.3;;;;;;;;;;;;;
2020/04/14 06:08:27;;;;;;;17.5;4.4;;;;;;;;;;;;;
2020/04/14 06:10:52;;;;;;;18.4;4.5;;;;;;;;;;;;;
2020/04/14 06:13:17;;;;;;;16.4;4.3;;;;;;;;;;;;;
2020/04/14 06:15:42;;;;;;;15.9;3.9;;;;;;;;;;;;;
2020/04/14 06:18:07;;;;;;;17.8;4.2;;;;;;;;;;;;;
2020/04/14 06:20:33;;;;;;;15.1;4.1;;;;;;;;;;;;;
2020/04/14 06:22:58;;;;;;;20;4.6;;;;;;;;;;;;;
2020/04/14 06:25:23;;;;;;;12.7;3.8;;;;;;;;;;;;;
2020/04/14 06:27:48;;;;;;;16.1;4.3;;;;;;;;;;;;;
2020/04/14 06:30:13;;;;;;;16;4.1;;;;;;;;;;;;;
2020/04/14 06:32:38;;;;;;;14.5;4.2;;;;;;;;;;;;;
2020/04/14 06:35:03;;;;;;;15.1;4.1;;;;;;;;;;;;;
2020/04/14 06:37:30;;;;;;;15.9;3.9;;;;;;;;;;;;;
2020/04/14 06:39:54;;;;;;;15.8;4.4;;;;;;;;;;;;;
2020/04/14 06:42:19;;;;;;;15.4;4.4;;;;;;;;;;;;;
2020/04/14 06:44:44;;;;;;;13.3;3.7;;;;;;;;;;;;;
2020/04/14 06:47:10;;;;;;;15.3;3.8;;;;;;;;;;;;;
2020/04/14 06:49:35;;;;;;;16;4.3;;;;;;;;;;;;;
2020/04/14 06:52:00;;;;;;;16.6;4.3;;;;;;;;;;;;;
2020/04/14 06:54:44;;;;;;;14.3;4;;;;;;;;;;;;;
2020/04/14 06:56:51;;;;;;;17.6;4.2;;;;;;;;;;;;;
2020/04/14 06:59:16;;;;;;;12.9;3.7;;;;;;;;;;;;;
2020/04/14 07:01:41;;;;;;;15;4.3;;;;;;;;;;;;;
2020/04/14 07:04:06;;;;;;;15.8;3.8;;;;;;;;;;;;;
2020/04/14 07:06:32;;;;;;;14.7;4;;;;;;;;;;;;;
2020/04/14 07:08:57;;;;;;;14.2;3.6;;;;;;;;;;;;;
2020/04/14 07:11:22;;;;;;;18.1;4.2;;;;;;;;;;;;;
2020/04/14 07:13:47;;;;;;;14.6;4.3;;;;;;;;;;;;;
2020/04/14 07:16:12;;;;;;;14;4;;;;;;;;;;;;;
2020/04/14 07:18:37;;;;;;;13.4;3.9;;;;;;;;;;;;;
2020/04/14 07:21:03;;;;;;;17.7;4.7;;;;;;;;;;;;;
2020/04/14 07:23:28;;;;;;;14.8;4.3;;;;;;;;;;;;;
2020/04/14 07:25:53;;;;;;;15.2;4.3;;;;;;;;;;;;;
2020/04/14 07:28:18;;;;;;;11.2;3.6;;;;;;;;;;;;;
2020/04/14 07:30:43;;;;;;;13.8;4;;;;;;;;;;;;;
2020/04/14 07:33:08;;;;;;;15.6;3.9;;;;;;;;;;;;;
2020/04/14 07:35:33;;;;;;;17.2;4.2;;;;;;;;;;;;;
2020/04/14 07:37:59;;;;;;;15.9;3.9;;;;;;;;;;;;;
2020/04/14 07:40:24;;;;;;;15;4.3;;;;;;;;;;;;;
2020/04/14 07:42:49;;;;;;;11.9;3.7;;;;;;;;;;;;;
2020/04/14 07:45:14;;;;;;;14.1;4.2;;;;;;;;;;;;;
2020/04/14 07:47:39;;;;;;;17.2;5;;;;;;;;;;;;;
2020/04/14 07:50:04;;;;;;;14.4;4.6;;;;;;;;;;;;;
2020/04/14 07:52:29;;;;;;;17.1;4.3;;;;;;;;;;;;;
2020/04/14 07:54:54;;;;;;;16.9;4.1;;;;;;;;;;;;;
2020/04/14 07:57:20;;;;;;;17.4;3.9;;;;;;;;;;;;;
2020/04/14 07:59:45;;;;;;;16.9;4.1;;;;;;;;;;;;;
2020/04/14 08:02:10;;;;;;;15.5;3.8;;;;;;;;;;;;;
2020/04/14 08:04:35;;;;;;;15.3;4.1;;;;;;;;;;;;;
2020/04/14 08:07:00;;;;;;;15.2;4.1;;;;;;;;;;;;;
2020/04/14 08:09:25;;;;;;;12.6;3.7;;;;;;;;;;;;;
2020/04/14 08:11:51;;;;;;;14.5;3.7;;;;;;;;;;;;;
2020/04/14 08:14:16;;;;;;;14.6;3.9;;;;;;;;;;;;;
2020/04/14 08:16:41;;;;;;;14.2;3.6;;;;;;;;;;;;;
2020/04/14 08:19:06;;;;;;;13.5;3.6;;;;;;;;;;;;;
2020/04/14 08:21:31;;;;;;;11.2;3.6;;;;;;;;;;;;;
2020/04/14 08:23:57;;;;;;;13.8;3.9;;;;;;;;;;;;;
2020/04/14 08:26:23;;;;;;;12.2;3.7;;;;;;;;;;;;;
2020/04/14 08:28:48;;;;;;;14.5;3.9;;;;;;;;;;;;;
2020/04/14 08:33:40;;;;;;;15.2;3.9;;;;;;;;;;;;;
2020/04/14 08:36:03;;;;;;;14.4;4;;;;;;;;;;;;;
2020/04/14 08:38:29;;;;;;;14.1;4.1;;;;;;;;;;;;;
2020/04/14 08:40:55;;;;;;;16.2;4.2;;;;;;;;;;;;;
2020/04/14 08:43:20;;;;;;;14.1;3.9;;;;;;;;;;;;;
2020/04/14 08:45:48;;;;;;;12.2;3.8;;;;;;;;;;;;;
2020/04/14 08:48:13;;;;;;;13.3;4;;;;;;;;;;;;;
2020/04/14 08:50:42;;;;;;;12.7;3.8;;;;;;;;;;;;;
2020/04/14 08:53:04;;;;;;;14.9;4;;;;;;;;;;;;;
2020/04/14 08:55:29;;;;;;;12.7;3.6;;;;;;;;;;;;;
2020/04/14 08:57:54;;;;;;;18.7;4.4;;;;;;;;;;;;;
2020/04/14 09:00:19;;;;;;;14.8;3.9;;;;;;;;;;;;;
2020/04/14 09:02:44;;;;;;;18.7;4.1;;;;;;;;;;;;;
2020/04/14 09:05:09;;;;;;;12.9;3.8;;;;;;;;;;;;;
2020/04/14 09:07:34;;;;;;;12.8;4.4;;;;;;;;;;;;;
2020/04/14 09:10:00;;;;;;;14.8;4.3;;;;;;;;;;;;;
2020/04/14 09:12:25;;;;;;;14.2;4;;;;;;;;;;;;;
2020/04/14 09:14:50;;;;;;;13;3.7;;;;;;;;;;;;;
2020/04/14 09:17:15;;;;;;;13.2;3.9;;;;;;;;;;;;;
2020/04/14 09:19:44;;;;;;;13.4;3.9;;;;;;;;;;;;;
2020/04/14 09:22:06;;;;;;;14.6;3.7;;;;;;;;;;;;;
2020/04/14 09:24:31;;;;;;;14.8;4;;;;;;;;;;;;;
2020/04/14 09:26:56;;;;;;;11.9;3.9;;;;;;;;;;;;;
2020/04/14 09:29:21;;;;;;;11.3;3.7;;;;;;;;;;;;;
2020/04/14 09:31:46;;;;;;;12.5;3.9;;;;;;;;;;;;;
2020/04/14 09:34:11;;;;;;;13.1;3.8;;;;;;;;;;;;;
2020/04/14 09:36:37;;;;;;;13;3.7;;;;;;;;;;;;;
2020/04/14 09:39:02;;;;;;;12.3;4.1;;;;;;;;;;;;;
2020/04/14 09:41:27;;;;;;;12.9;3.8;;;;;;;;;;;;;
2020/04/14 09:43:52;;;;;;;10.2;3.4;;;;;;;;;;;;;
2020/04/14 09:46:18;;;;;;;11.7;3.5;;;;;;;;;;;;;
2020/04/14 09:48:43;;;;;;;11.8;3.7;;;;;;;;;;;;;
2020/04/14 09:51:08;;;;;;;15;4;;;;;;;;;;;;;
2020/04/14 09:53:33;;;;;;;18.1;4.3;;;;;;;;;;;;;
2020/04/14 09:55:58;;;;;;;11.5;4;;;;;;;;;;;;;
2020/04/14 09:58:24;;;;;;;13.7;3.9;;;;;;;;;;;;;
2020/04/14 10:00:49;;;;;;;12.3;4.1;;;;;;;;;;;;;
2020/04/14 10:03:14;;;;;;;10.8;3.8;;;;;;;;;;;;;
2020/04/14 10:05:40;;;;;;;11.4;3.7;;;;;;;;;;;;;
2020/04/14 10:08:04;;;;;;;12.2;3.7;;;;;;;;;;;;;
2020/04/14 10:10:30;;;;;;;9.9;3.4;;;;;;;;;;;;;
2020/04/14 10:12:57;;;;;;;11.4;3.7;;;;;;;;;;;;;
2020/04/14 10:15:21;;;;;;;14.1;4.2;;;;;;;;;;;;;
2020/04/14 10:17:46;;;;;;;13.3;3.9;;;;;;;;;;;;;
2020/04/14 10:20:14;;;;;;;12.5;3.9;;;;;;;;;;;;;
2020/04/14 10:22:39;;;;;;;12.4;4.1;;;;;;;;;;;;;
2020/04/14 10:25:04;;;;;;;13.6;3.9;;;;;;;;;;;;;
2020/04/14 10:27:29;;;;;;;13;3.8;;;;;;;;;;;;;
2020/04/14 10:29:54;;;;;;;11;3.5;;;;;;;;;;;;;
2020/04/14 10:32:20;;;;;;;10.1;3.5;;;;;;;;;;;;;
2020/04/14 10:34:45;;;;;;;12.4;3.6;;;;;;;;;;;;;
2020/04/14 10:37:10;;;;;;;11.6;3.8;;;;;;;;;;;;;
2020/04/14 10:39:35;;;;;;;11.4;3.8;;;;;;;;;;;;;
2020/04/14 10:42:00;;;;;;;10.7;3.9;;;;;;;;;;;;;
2020/04/14 10:44:26;;;;;;;14.8;4.1;;;;;;;;;;;;;
2020/04/14 10:46:51;;;;;;;12.1;3.9;;;;;;;;;;;;;
2020/04/14 10:49:16;;;;;;;13.9;4;;;;;;;;;;;;;
2020/04/14 10:51:41;;;;;;;14.3;3.9;;;;;;;;;;;;;
2020/04/14 10:54:06;;;;;;;11.1;3.8;;;;;;;;;;;;;
2020/04/14 10:56:32;;;;;;;14.4;4;;;;;;;;;;;;;
2020/04/14 10:58:57;;;;;;;11.5;3.4;;;;;;;;;;;;;
2020/04/14 11:01:23;;;;;;;14.3;3.9;;;;;;;;;;;;;
2020/04/14 11:03:49;;;;;;;9.9;3.5;;;;;;;;;;;;;
2020/04/14 11:06:18;;;;;;;13.3;4.1;;;;;;;;;;;;;
2020/04/14 11:08:40;;;;;;;9.8;3.7;;;;;;;;;;;;;
2020/04/14 11:11:06;;;;;;;7.8;3.6;;;;;;;;;;;;;
2020/04/14 11:13:31;;;;;;;10.1;4;;;;;;;;;;;;;
2020/04/14 11:15:56;;;;;;;10.1;3.5;;;;;;;;;;;;;
2020/04/14 11:18:22;;;;;;;11.8;3.6;;;;;;;;;;;;;
2020/04/14 11:20:48;;;;;;;10.4;3.7;;;;;;;;;;;;;
2020/04/14 11:23:13;;;;;;;10.4;3.7;;;;;;;;;;;;;
2020/04/14 11:25:39;;;;;;;12.2;3.7;;;;;;;;;;;;;
2020/04/14 11:28:04;;;;;;;12;4;;;;;;;;;;;;;
2020/04/14 11:30:29;;;;;;;12.6;4.1;;;;;;;;;;;;;
2020/04/14 11:32:54;;;;;;;10.9;4;;;;;;;;;;;;;
2020/04/14 11:35:19;;;;;;;10.7;3.6;;;;;;;;;;;;;
2020/04/14 11:37:44;;;;;;;12.6;4.1;;;;;;;;;;;;;
2020/04/14 11:40:13;;;;;;;10.4;3.8;;;;;;;;;;;;;
2020/04/14 11:42:37;;;;;;;11.6;3.7;;;;;;;;;;;;;
2020/04/14 11:45:08;;;;;;;10.2;3.7;;;;;;;;;;;;;
2020/04/14 11:47:33;;;;;;;10.9;3.5;;;;;;;;;;;;;
2020/04/14 11:49:58;;;;;;;9.3;3.7;;;;;;;;;;;;;
2020/04/14 11:52:24;;;;;;;12.3;3.7;;;;;;;;;;;;;
2020/04/14 11:54:49;;;;;;;10.1;3.9;;;;;;;;;;;;;
2020/04/14 11:57:16;;;;;;;11.3;3.8;;;;;;;;;;;;;
2020/04/14 11:59:41;;;;;;;12.4;3.9;;;;;;;;;;;;;
2020/04/14 12:02:07;;;;;;;11.5;4;;;;;;;;;;;;;
2020/04/14 12:04:32;;;;;;;10.8;3.5;;;;;;;;;;;;;
2020/04/14 12:06:56;;;;;;;10.9;3.6;;;;;;;;;;;;;
2020/04/14 12:09:21;;;;;;;9.6;3.5;;;;;;;;;;;;;
2020/04/14 12:11:46;;;;;;;8.4;3.7;;;;;;;;;;;;;
2020/04/14 12:14:11;;;;;;;11.7;4.2;;;;;;;;;;;;;
2020/04/14 12:16:37;;;;;;;8.8;3.5;;;;;;;;;;;;;
2020/04/14 12:19:03;;;;;;;12.1;4;;;;;;;;;;;;;
2020/04/14 12:21:29;;;;;;;12.1;3.7;;;;;;;;;;;;;
2020/04/14 12:23:54;;;;;;;11.2;3.8;;;;;;;;;;;;;
2020/04/14 12:26:20;;;;;;;9.6;3.8;;;;;;;;;;;;;
2020/04/14 12:28:45;;;;;;;8.4;3.6;;;;;;;;;;;;;
2020/04/14 12:31:11;;;;;;;11.5;3.7;;;;;;;;;;;;;
2020/04/14 12:33:36;;;;;;;10.5;3.5;;;;;;;;;;;;;
2020/04/14 12:36:02;;;;;;;8.8;3.6;;;;;;;;;;;;;
2020/04/14 12:38:27;;;;;;;8.5;3.8;;;;;;;;;;;;;
2020/04/14 12:40:53;;;;;;;11.5;3.9;;;;;;;;;;;;;
2020/04/14 12:43:18;;;;;;;10.4;3.8;;;;;;;;;;;;;
2020/04/14 12:45:44;;;;;;;10.8;3.7;;;;;;;;;;;;;
2020/04/14 12:48:09;;;;;;;11.4;3.7;;;;;;;;;;;;;
2020/04/14 12:50:36;;;;;;;14;4.1;;;;;;;;;;;;;
2020/04/14 12:53:01;;;;;;;9;4;;;;;;;;;;;;;
2020/04/14 12:55:26;;;;;;;10.9;4;;;;;;;;;;;;;
2020/04/14 12:57:52;;;;;;;12.2;4.1;;;;;;;;;;;;;
2020/04/14 13:00:17;;;;;;;11.5;4;;;;;;;;;;;;;
2020/04/14 13:02:42;;;;;;;10.8;3.8;;;;;;;;;;;;;
2020/04/14 13:05:07;;;;;;;11.3;4;;;;;;;;;;;;;
2020/04/14 13:07:32;;;;;;;10.7;3.8;;;;;;;;;;;;;
2020/04/14 13:09:57;;;;;;;10.9;3.7;;;;;;;;;;;;;
2020/04/14 13:12:23;;;;;;;10;3.7;;;;;;;;;;;;;
2020/04/14 13:14:53;;;;;;;9.3;3.7;;;;;;;;;;;;;
2020/04/14 13:19:53;;;;;;;9.6;3.7;;;;;;;;;;;;;
2020/04/14 13:22:06;;;;;;;11.1;3.8;;;;;;;;;;;;;
2020/04/14 13:24:29;;;;;;;9.8;3.7;;;;;;;;;;;;;
2020/04/14 13:26:54;;;;;;;14.7;4;;;;;;;;;;;;;
2020/04/14 13:29:20;;;;;;;14.1;4;;;;;;;;;;;;;
2020/04/14 13:31:45;;;;;;;9.6;3.9;;;;;;;;;;;;;
2020/04/14 13:34:11;;;;;;;11.4;4;;;;;;;;;;;;;
2020/04/14 13:36:36;;;;;;;10.3;3.7;;;;;;;;;;;;;
2020/04/14 13:39:02;;;;;;;9.5;3.9;;;;;;;;;;;;;
2020/04/14 13:41:27;;;;;;;12.1;4.2;;;;;;;;;;;;;
2020/04/14 13:43:53;;;;;;;11.9;3.9;;;;;;;;;;;;;
2020/04/14 13:46:18;;;;;;;10.1;3.8;;;;;;;;;;;;;
2020/04/14 13:48:44;;;;;;;9.7;3.7;;;;;;;;;;;;;
2020/04/14 13:51:10;;;;;;;10.5;4;;;;;;;;;;;;;
2020/04/14 13:53:36;;;;;;;10.6;3.9;;;;;;;;;;;;;
2020/04/14 13:56:01;;;;;;;9;3.8;;;;;;;;;;;;;
2020/04/14 13:58:27;;;;;;;12.3;3.9;;;;;;;;;;;;;
2020/04/14 14:00:52;;;;;;;12.2;4;;;;;;;;;;;;;
2020/04/14 14:03:19;;;;;;;10.6;3.9;;;;;;;;;;;;;
2020/04/14 14:05:44;;;;;;;10.6;3.7;;;;;;;;;;;;;
2020/04/14 14:08:10;;;;;;;10.4;3.9;;;;;;;;;;;;;
2020/04/14 14:10:35;;;;;;;13.7;3.9;;;;;;;;;;;;;
2020/04/14 14:13:01;;;;;;;9.8;3.7;;;;;;;;;;;;;
2020/04/14 14:15:26;;;;;;;10.3;3.7;;;;;;;;;;;;;
2020/04/14 14:17:51;;;;;;;11.9;3.9;;;;;;;;;;;;;
2020/04/14 14:20:17;;;;;;;9.8;3.9;;;;;;;;;;;;;
2020/04/14 14:22:42;;;;;;;10.9;4;;;;;;;;;;;;;
2020/04/14 14:25:07;;;;;;;12.1;3.8;;;;;;;;;;;;;
2020/04/14 14:27:32;;;;;;;10.3;4.1;;;;;;;;;;;;;
2020/04/14 14:29:57;;;;;;;9.4;3.8;;;;;;;;;;;;;
2020/04/14 14:32:22;;;;;;;12.6;3.8;;;;;;;;;;;;;
2020/04/14 14:34:49;;;;;;;11.3;4.1;;;;;;;;;;;;;
2020/04/14 14:37:14;;;;;;;13.2;4.4;;;;;;;;;;;;;
2020/04/14 14:39:39;;;;;;;11.1;4.2;;;;;;;;;;;;;
2020/04/14 14:42:04;;;;;;;11;4.6;;;;;;;;;;;;;
2020/04/14 14:44:29;;;;;;;12.5;4.1;;;;;;;;;;;;;
2020/04/14 14:46:54;;;;;;;10.7;4.2;;;;;;;;;;;;;
2020/04/14 14:49:19;;;;;;;14.6;4.6;;;;;;;;;;;;;
2020/04/14 14:51:45;;;;;;;10.6;3.9;;;;;;;;;;;;;
2020/04/14 14:54:10;;;;;;;14.4;4;;;;;;;;;;;;;
2020/04/14 14:56:35;;;;;;;12.2;4.1;;;;;;;;;;;;;
2020/04/14 14:59:02;;;;;;;10.1;4.2;;;;;;;;;;;;;
2020/04/14 15:01:25;;;;;;;8.3;3.9;;;;;;;;;;;;;
2020/04/14 15:03:51;;;;;;;10.2;4.1;;;;;;;;;;;;;
2020/04/14 15:06:15;;;;;;;13.1;4.4;;;;;;;;;;;;;
2020/04/14 15:08:41;;;;;;;12.7;4.3;;;;;;;;;;;;;
2020/04/14 15:11:06;;;;;;;10.3;4.2;;;;;;;;;;;;;
2020/04/14 15:13:31;;;;;;;12;4.3;;;;;;;;;;;;;
2020/04/14 15:15:56;;;;;;;12.5;4.5;;;;;;;;;;;;;
2020/04/14 15:18:21;;;;;;;11.7;4.1;;;;;;;;;;;;;
2020/04/14 15:20:47;;;;;;;11.7;4.5;;;;;;;;;;;;;
2020/04/14 15:23:12;;;;;;;11.2;4.1;;;;;;;;;;;;;
2020/04/14 15:25:38;;;;;;;14.6;4.3;;;;;;;;;;;;;
2020/04/14 15:28:03;;;;;;;11.8;4.6;;;;;;;;;;;;;
2020/04/14 15:30:29;;;;;;;12.6;4.7;;;;;;;;;;;;;
2020/04/14 15:32:55;;;;;;;9.9;4.1;;;;;;;;;;;;;
2020/04/14 15:35:20;;;;;;;10.8;4.7;;;;;;;;;;;;;
2020/04/14 15:37:45;;;;;;;14.4;4.6;;;;;;;;;;;;;
2020/04/14 15:40:10;;;;;;;12.9;4.8;;;;;;;;;;;;;
2020/04/14 15:42:35;;;;;;;15.5;4.5;;;;;;;;;;;;;
2020/04/14 15:45:01;;;;;;;9.3;4.1;;;;;;;;;;;;;
2020/04/14 15:47:26;;;;;;;12.1;4.2;;;;;;;;;;;;;
2020/04/14 15:49:51;;;;;;;14.5;4.6;;;;;;;;;;;;;
2020/04/14 15:52:16;;;;;;;12.5;4.9;;;;;;;;;;;;;
2020/04/14 15:54:41;;;;;;;10;4.2;;;;;;;;;;;;;
2020/04/14 15:57:06;;;;;;;11.7;4.5;;;;;;;;;;;;;
2020/04/14 15:59:32;;;;;;;11.3;4.4;;;;;;;;;;;;;
2020/04/14 16:01:57;;;;;;;12.7;4.8;;;;;;;;;;;;;
2020/04/14 16:04:22;;;;;;;12.9;4.4;;;;;;;;;;;;;
2020/04/14 16:06:47;;;;;;;10.7;4.8;;;;;;;;;;;;;
2020/04/14 16:09:14;;;;;;;12.5;4.7;;;;;;;;;;;;;
2020/04/14 16:11:39;;;;;;;12.1;4.7;;;;;;;;;;;;;
2020/04/14 16:14:04;;;;;;;11.8;4.2;;;;;;;;;;;;;
2020/04/14 16:16:29;;;;;;;13.2;4.7;;;;;;;;;;;;;
2020/04/14 16:18:57;;;;;;;13.1;4.9;;;;;;;;;;;;;
2020/04/14 16:21:21;;;;;;;11.5;4.4;;;;;;;;;;;;;
2020/04/14 16:23:46;;;;;;;15.1;5.2;;;;;;;;;;;;;
2020/04/14 16:26:12;;;;;;;12.4;4.6;;;;;;;;;;;;;
2020/04/14 16:28:37;;;;;;;15.2;5;;;;;;;;;;;;;
2020/04/14 16:31:02;;;;;;;11.5;4.6;;;;;;;;;;;;;
2020/04/14 16:33:27;;;;;;;12.7;5;;;;;;;;;;;;;
2020/04/14 16:35:52;;;;;;;14.2;4.4;;;;;;;;;;;;;
2020/04/14 16:38:17;;;;;;;13.8;4.4;;;;;;;;;;;;;
2020/04/14 16:40:44;;;;;;;12.5;4.4;;;;;;;;;;;;;
2020/04/14 16:43:09;;;;;;;12;4.4;;;;;;;;;;;;;
2020/04/14 16:45:35;;;;;;;10.7;4.8;;;;;;;;;;;;;
2020/04/14 16:48:00;;;;;;;13.4;4.9;;;;;;;;;;;;;
2020/04/14 16:50:26;;;;;;;14;4.8;;;;;;;;;;;;;
2020/04/14 16:52:51;;;;;;;10.8;4.8;;;;;;;;;;;;;
2020/04/14 16:55:17;;;;;;;11.9;4.4;;;;;;;;;;;;;
2020/04/14 16:57:42;;;;;;;12.8;4.4;;;;;;;;;;;;;
2020/04/14 17:00:07;;;;;;;12;4.5;;;;;;;;;;;;;
2020/04/14 17:02:32;;;;;;;10.8;4.4;;;;;;;;;;;;;
2020/04/14 17:04:57;;;;;;;13.1;4.9;;;;;;;;;;;;;
2020/04/14 17:07:23;;;;;;;12;4.6;;;;;;;;;;;;;
2020/04/14 17:09:48;;;;;;;13.9;4.8;;;;;;;;;;;;;
2020/04/14 17:12:13;;;;;;;11;4.5;;;;;;;;;;;;;
2020/04/14 17:14:38;;;;;;;13.7;4.9;;;;;;;;;;;;;
2020/04/14 17:17:03;;;;;;;15.4;5;;;;;;;;;;;;;
2020/04/14 17:19:29;;;;;;;12.6;4.7;;;;;;;;;;;;;
2020/04/14 17:23:15;;;;;;;10.5;4.5;;;;;;;;;;;;;
2020/04/14 17:24:33;;;;;;;14.4;4.6;;;;;;;;;;;;;
2020/04/14 17:26:45;;;;;;;11.7;4.7;;;;;;;;;;;;;
2020/04/14 17:29:10;;;;;;;13.8;4.8;;;;;;;;;;;;;
2020/04/14 17:31:37;;;;;;;12.7;4.6;;;;;;;;;;;;;
2020/04/14 17:34:00;;;;;;;10.9;4.4;;;;;;;;;;;;;
2020/04/14 17:36:26;;;;;;;12.4;4.4;;;;;;;;;;;;;
2020/04/14 17:38:51;;;;;;;14;4.7;;;;;;;;;;;;;
2020/04/14 17:41:16;;;;;;;12.5;4.5;;;;;;;;;;;;;
2020/04/14 17:43:41;;;;;;;14;4.8;;;;;;;;;;;;;
2020/04/14 17:46:06;;;;;;;12.2;4.6;;;;;;;;;;;;;
2020/04/14 17:48:31;;;;;;;12.6;4.8;;;;;;;;;;;;;
2020/04/14 17:50:57;;;;;;;14.7;5.7;;;;;;;;;;;;;
2020/04/14 17:53:22;;;;;;;13.2;5.4;;;;;;;;;;;;;
2020/04/14 17:55:48;;;;;;;14.3;5.2;;;;;;;;;;;;;
2020/04/14 17:58:13;;;;;;;12.8;4.9;;;;;;;;;;;;;
2020/04/14 18:00:39;;;;;;;12;4.7;;;;;;;;;;;;;
2020/04/14 18:03:04;;;;;;;14.8;5;;;;;;;;;;;;;
2020/04/14 18:05:30;;;;;;;16;5.1;;;;;;;;;;;;;
2020/04/14 18:07:55;;;;;;;14.2;5;;;;;;;;;;;;;
2020/04/14 18:10:21;;;;;;;13.5;4.9;;;;;;;;;;;;;
2020/04/14 18:12:47;;;;;;;14.7;6.5;;;;;;;;;;;;;
2020/04/14 18:15:18;;;;;;;16.3;5.3;;;;;;;;;;;;;
2020/04/14 18:17:41;;;;;;;17;5.4;;;;;;;;;;;;;
2020/04/14 18:20:05;;;;;;;15.1;6.1;;;;;;;;;;;;;
2020/04/14 18:22:30;;;;;;;13.7;6.2;;;;;;;;;;;;;
2020/04/14 18:24:56;;;;;;;14.9;5.8;;;;;;;;;;;;;
2020/04/14 18:27:21;;;;;;;15.7;6.3;;;;;;;;;;;;;
2020/04/14 18:29:46;;;;;;;16;6.5;;;;;;;;;;;;;
2020/04/14 18:32:11;;;;;;;15.9;6.8;;;;;;;;;;;;;
2020/04/14 18:34:36;;;;;;;13.5;6.7;;;;;;;;;;;;;
2020/04/14 18:37:02;;;;;;;13.5;5.3;;;;;;;;;;;;;
2020/04/14 18:39:27;;;;;;;26.9;12;;;;;;;;;;;;;
2020/04/14 18:41:52;;;;;;;36.6;17.1;;;;;;;;;;;;;
2020/04/14 18:44:17;;;;;;;37;17.6;;;;;;;;;;;;;
2020/04/14 18:46:42;;;;;;;33.5;15.3;;;;;;;;;;;;;
2020/04/14 18:49:07;;;;;;;29.5;14.8;;;;;;;;;;;;;
2020/04/14 18:51:33;;;;;;;26.9;12.1;;;;;;;;;;;;;
2020/04/14 18:54:01;;;;;;;25.8;11.1;;;;;;;;;;;;;
2020/04/14 18:56:27;;;;;;;27.8;12.8;;;;;;;;;;;;;
2020/04/14 18:58:51;;;;;;;20.3;10.3;;;;;;;;;;;;;
2020/04/14 19:01:17;;;;;;;17.2;7.2;;;;;;;;;;;;;
2020/04/14 19:03:42;;;;;;;15.7;6.8;;;;;;;;;;;;;
2020/04/14 19:06:07;;;;;;;19.7;7.9;;;;;;;;;;;;;
2020/04/14 19:08:32;;;;;;;19.9;8.9;;;;;;;;;;;;;
2020/04/14 19:10:57;;;;;;;19.5;8.9;;;;;;;;;;;;;
2020/04/14 19:13:22;;;;;;;22.7;9;;;;;;;;;;;;;
2020/04/14 19:15:47;;;;;;;17.9;8.6;;;;;;;;;;;;;
2020/04/14 19:18:12;;;;;;;22.1;9.1;;;;;;;;;;;;;
2020/04/14 19:20:38;;;;;;;20.6;11.4;;;;;;;;;;;;;
2020/04/14 19:23:03;;;;;;;25.3;13;;;;;;;;;;;;;
2020/04/14 19:25:29;;;;;;;22.7;10.9;;;;;;;;;;;;;
2020/04/14 19:27:54;;;;;;;17.8;9.3;;;;;;;;;;;;;
2020/04/14 19:30:21;;;;;;;16.9;8.8;;;;;;;;;;;;;
2020/04/14 19:32:45;;;;;;;13.6;6.9;;;;;;;;;;;;;
2020/04/14 19:35:10;;;;;;;16.4;6.6;;;;;;;;;;;;;
2020/04/14 19:37:36;;;;;;;18.5;6.9;;;;;;;;;;;;;
2020/04/14 19:40:01;;;;;;;18.9;6.6;;;;;;;;;;;;;
2020/04/14 19:42:26;;;;;;;15.8;6.7;;;;;;;;;;;;;
2020/04/14 19:44:51;;;;;;;16.8;6.7;;;;;;;;;;;;;
2020/04/14 19:47:16;;;;;;;15.3;6.5;;;;;;;;;;;;;
2020/04/14 19:49:41;;;;;;;17.9;6.5;;;;;;;;;;;;;
2020/04/14 19:52:06;;;;;;;14.4;6.7;;;;;;;;;;;;;
2020/04/14 19:54:32;;;;;;;18.2;7.2;;;;;;;;;;;;;
2020/04/14 19:56:57;;;;;;;16.9;7.6;;;;;;;;;;;;;
2020/04/14 19:59:23;;;;;;;21;8.3;;;;;;;;;;;;;
2020/04/14 20:01:48;;;;;;;19.6;8;;;;;;;;;;;;;
2020/04/14 20:04:14;;;;;;;18.4;7.8;;;;;;;;;;;;;